Time;durP1;ratioP1;P1;durP2;ratioP2;P2;SDS_P1;SDS_P2;PMS_P1;PMS_P2;Temp;Humidity;BMP_temperature;BMP_pressure;BME280_temperature;BME280_humidity;BME280_pressure;Samples;Min_cycle;Max_cycle;Signal;HPM_P1;HPM_P2
2022/09/01 00:00:27;;;;;;;3.17;0.98;;;19.40;99.90;;;;;;5099045;28;20123;-63
2022/09/01 00:02:54;;;;;;;1.35;0.90;;;19.30;99.90;;;;;;5082282;28;20131;-63
2022/09/01 00:05:21;;;;;;;3.08;0.88;;;19.30;99.90;;;;;;5098430;28;20035;-63
2022/09/01 00:07:48;;;;;;;2.25;1.02;;;19.20;99.90;;;;;;5098112;28;20024;-64
2022/09/01 00:10:14;;;;;;;5.22;1.00;;;19.20;99.90;;;;;;5098941;28;20028;-61
2022/09/01 00:12:40;;;;;;;2.65;1.02;;;19.20;99.90;;;;;;5098109;28;20044;-61
2022/09/01 00:15:08;;;;;;;2.15;0.85;;;19.20;99.90;;;;;;5098837;28;20046;-62
2022/09/01 00:17:34;;;;;;;3.13;1.10;;;19.10;99.90;;;;;;5099005;28;20101;-62
2022/09/01 00:20:00;;;;;;;3.13;1.17;;;19.10;99.90;;;;;;5098581;28;20028;-62
2022/09/01 00:22:26;;;;;;;2.15;1.17;;;19.10;99.90;;;;;;5099295;28;20040;-62
2022/09/01 00:24:51;;;;;;;2.05;1.00;;;19.00;99.90;;;;;;5098530;28;20028;-62
2022/09/01 00:27:17;;;;;;;2.03;1.10;;;18.90;99.90;;;;;;5098573;28;20036;-62
2022/09/01 00:29:43;;;;;;;3.45;0.85;;;19.00;99.90;;;;;;5098395;28;20418;-62
2022/09/01 00:32:09;;;;;;;4.47;1.05;;;19.00;99.90;;;;;;5098260;28;20042;-62
2022/09/01 00:34:35;;;;;;;3.10;0.90;;;18.80;99.90;;;;;;5098180;28;20034;-62
2022/09/01 00:37:01;;;;;;;1.80;0.82;;;18.70;99.90;;;;;;5097492;28;20123;-62
2022/09/01 00:39:26;;;;;;;5.13;1.10;;;18.70;99.90;;;;;;5097243;28;20063;-63
2022/09/01 00:41:52;;;;;;;2.67;1.10;;;18.70;99.90;;;;;;5098240;28;20470;-61
2022/09/01 00:44:26;;;;;;;2.58;1.10;;;18.80;99.90;;;;;;5098095;28;20032;-61
2022/09/01 00:46:54;;;;;;;1.33;0.82;;;18.70;99.90;;;;;;5098635;28;20048;-61
2022/09/01 00:49:37;;;;;;;2.95;1.20;;;18.60;99.90;;;;;;5097972;28;20031;-64
2022/09/01 00:52:19;;;;;;;1.65;1.08;;;18.50;99.90;;;;;;5097951;28;20031;-61
2022/09/01 00:54:49;;;;;;;2.65;0.98;;;18.50;99.90;;;;;;5097182;28;20036;-61
2022/09/01 00:57:15;;;;;;;3.72;1.00;;;18.60;99.90;;;;;;5098635;28;20043;-62
2022/09/01 01:00:10;;;;;;;2.40;1.15;;;18.70;99.90;;;;;;5097186;28;20272;-62
2022/09/01 01:02:37;;;;;;;2.75;1.17;;;18.60;99.90;;;;;;5097964;28;20020;-62
2022/09/01 01:05:05;;;;;;;4.13;1.10;;;18.40;99.90;;;;;;5097744;28;20078;-62
2022/09/01 01:07:35;;;;;;;5.38;1.20;;;18.30;99.90;;;;;;5098409;28;20146;-62
2022/09/01 01:10:02;;;;;;;2.10;1.25;;;18.30;99.90;;;;;;5096963;28;20024;-62
2022/09/01 01:12:29;;;;;;;2.00;1.05;;;18.20;99.90;;;;;;5097033;28;20043;-63
2022/09/01 01:14:55;;;;;;;4.30;1.10;;;18.10;99.90;;;;;;5080319;28;20039;-63
2022/09/01 01:17:22;;;;;;;1.13;1.00;;;18.20;99.90;;;;;;5080488;28;20410;-62
2022/09/01 01:23:02;;;;;;;3.50;1.10;;;18.10;99.90;;;;;;5097572;28;20047;-63
2022/09/01 01:25:38;;;;;;;2.22;1.20;;;18.00;99.90;;;;;;5096514;28;20036;-62
2022/09/01 01:28:08;;;;;;;2.38;0.98;;;17.80;99.90;;;;;;5097317;28;20024;-62
2022/09/01 01:30:38;;;;;;;3.00;1.30;;;17.80;99.90;;;;;;5096632;28;20314;-62
2022/09/01 01:33:06;;;;;;;5.57;1.10;;;17.80;99.90;;;;;;5096856;28;20028;-62
2022/09/01 01:35:32;;;;;;;2.67;1.10;;;17.70;99.90;;;;;;5096477;28;20085;-63
2022/09/01 01:38:00;;;;;;;3.35;1.15;;;17.80;99.90;;;;;;5096077;28;20123;-62
2022/09/01 01:40:28;;;;;;;4.07;1.17;;;17.70;99.90;;;;;;5097343;28;20040;-62
2022/09/01 01:42:54;;;;;;;1.52;1.00;;;17.80;99.90;;;;;;5097469;28;20280;-62
2022/09/01 01:45:22;;;;;;;2.40;1.38;;;17.80;99.90;;;;;;5096286;28;20117;-62
2022/09/01 01:47:52;;;;;;;2.83;1.10;;;17.80;99.90;;;;;;5096375;28;20016;-62
2022/09/01 01:50:25;;;;;;;3.88;1.45;;;17.90;99.90;;;;;;5096145;28;20024;-62
2022/09/01 01:52:51;;;;;;;3.38;1.30;;;17.90;99.90;;;;;;5096432;28;20040;-62
2022/09/01 01:55:18;;;;;;;1.60;1.30;;;18.00;99.90;;;;;;5096250;28;20043;-62
2022/09/01 01:57:49;;;;;;;2.80;1.15;;;18.20;99.90;;;;;;5096288;28;20082;-61
2022/09/01 02:00:22;;;;;;;3.28;1.33;;;18.20;99.90;;;;;;5096166;28;20028;-62
2022/09/01 02:02:52;;;;;;;3.42;1.15;;;18.30;99.90;;;;;;5097012;28;20107;-62
2022/09/01 02:05:21;;;;;;;5.40;1.23;;;18.30;99.90;;;;;;5096229;28;20024;-62
2022/09/01 02:07:49;;;;;;;2.20;1.30;;;18.30;99.90;;;;;;5096376;28;20435;-63
2022/09/01 02:10:15;;;;;;;1.27;1.02;;;18.10;99.90;;;;;;5096121;28;20032;-63
2022/09/01 02:12:42;;;;;;;3.92;1.17;;;18.00;99.90;;;;;;5079238;28;20400;-62
2022/09/01 02:15:10;;;;;;;2.33;1.10;;;18.10;99.90;;;;;;5095890;28;20076;-61
2022/09/01 02:17:38;;;;;;;2.40;1.10;;;18.10;99.90;;;;;;5096237;28;20400;-62
2022/09/01 02:20:05;;;;;;;2.33;1.20;;;18.00;99.90;;;;;;5095812;28;20044;-62
2022/09/01 02:22:31;;;;;;;2.88;1.20;;;18.00;99.90;;;;;;5079538;28;20383;-62
2022/09/01 02:24:59;;;;;;;2.05;1.15;;;18.00;99.90;;;;;;5096691;28;20036;-62
2022/09/01 02:27:28;;;;;;;2.25;1.05;;;17.90;99.90;;;;;;5096728;28;20025;-61
2022/09/01 02:29:54;;;;;;;2.55;0.90;;;17.80;99.90;;;;;;5095923;28;20411;-63
2022/09/01 02:32:20;;;;;;;2.53;1.02;;;17.80;99.90;;;;;;5096639;28;20039;-62
2022/09/01 02:34:52;;;;;;;2.67;1.00;;;17.80;99.90;;;;;;5079166;28;20024;-62
2022/09/01 02:37:24;;;;;;;1.48;1.10;;;17.80;99.90;;;;;;5100531;28;20137;-62
2022/09/01 02:39:56;;;;;;;2.45;1.00;;;17.60;99.90;;;;;;5100502;28;20400;-62
2022/09/01 02:42:25;;;;;;;2.50;1.20;;;17.60;99.90;;;;;;5101316;28;20097;-62
2022/09/01 02:44:53;;;;;;;1.65;1.00;;;17.60;99.90;;;;;;5099783;28;20028;-62
2022/09/01 02:47:22;;;;;;;1.45;1.10;;;17.50;99.90;;;;;;5100403;28;20097;-63
2022/09/01 02:49:49;;;;;;;5.78;1.20;;;17.50;99.90;;;;;;5099739;28;20348;-64
2022/09/01 02:52:16;;;;;;;1.30;1.00;;;17.40;99.90;;;;;;5100544;28;20028;-62
2022/09/01 02:54:44;;;;;;;2.08;1.40;;;17.60;99.90;;;;;;5100616;28;20296;-62
2022/09/01 02:57:11;;;;;;;3.70;1.38;;;17.50;99.90;;;;;;5099682;28;20146;-62
2022/09/01 02:59:37;;;;;;;2.03;1.20;;;17.40;99.90;;;;;;5099628;28;20038;-63
2022/09/01 03:02:05;;;;;;;2.25;1.10;;;17.50;99.90;;;;;;5100265;28;20392;-62
2022/09/01 03:04:33;;;;;;;2.97;1.17;;;17.50;99.90;;;;;;5099376;28;20024;-61
2022/09/01 03:07:00;;;;;;;2.75;1.30;;;17.50;99.90;;;;;;5099335;28;20024;-62
2022/09/01 03:09:26;;;;;;;2.38;1.17;;;17.40;99.90;;;;;;5099975;28;20028;-62
2022/09/01 03:11:53;;;;;;;2.50;1.10;;;17.60;99.90;;;;;;5099097;28;20132;-61
2022/09/01 03:14:22;;;;;;;2.70;1.27;;;17.60;99.90;;;;;;5099934;28;20062;-61
2022/09/01 03:16:48;;;;;;;2.05;1.10;;;17.50;99.90;;;;;;5099920;28;20038;-62
2022/09/01 03:19:14;;;;;;;3.72;1.40;;;17.40;99.90;;;;;;5099201;28;20307;-62
2022/09/01 03:21:42;;;;;;;4.70;1.27;;;17.40;99.90;;;;;;5098954;28;20415;-62
2022/09/01 03:24:13;;;;;;;4.22;1.17;;;17.40;99.90;;;;;;5098989;28;20029;-62
2022/09/01 03:26:39;;;;;;;2.63;1.10;;;17.50;99.90;;;;;;5100173;28;20027;-62
2022/09/01 03:29:05;;;;;;;3.13;1.13;;;17.50;99.90;;;;;;5098958;28;20307;-62
2022/09/01 03:31:31;;;;;;;1.38;1.10;;;17.40;99.90;;;;;;5098941;28;20047;-62
2022/09/01 03:34:00;;;;;;;2.10;1.33;;;17.30;99.90;;;;;;5082359;28;20032;-62
2022/09/01 03:36:32;;;;;;;4.28;1.13;;;17.30;99.90;;;;;;5098912;28;20361;-63
2022/09/01 03:38:59;;;;;;;1.58;1.00;;;17.30;99.90;;;;;;5099286;28;20057;-62
2022/09/01 03:41:27;;;;;;;1.45;1.33;;;17.30;99.90;;;;;;5098800;28;20028;-62
2022/09/01 03:43:55;;;;;;;2.42;1.20;;;17.30;99.90;;;;;;5098625;28;20028;-63
2022/09/01 03:46:23;;;;;;;3.38;1.30;;;17.20;99.90;;;;;;5098684;28;20303;-62
2022/09/01 03:48:53;;;;;;;4.63;1.33;;;17.30;99.90;;;;;;5097929;28;20320;-63
2022/09/01 03:51:21;;;;;;;1.40;1.27;;;17.30;99.90;;;;;;5098641;28;20306;-63
2022/09/01 03:53:48;;;;;;;3.05;1.40;;;17.30;99.90;;;;;;5099673;28;20028;-63
2022/09/01 03:56:14;;;;;;;1.25;1.00;;;17.30;99.90;;;;;;5099194;28;20032;-63
2022/09/01 03:58:45;;;;;;;3.80;1.60;;;17.20;99.90;;;;;;5081904;28;20047;-63
2022/09/01 04:01:12;;;;;;;2.05;1.40;;;17.20;99.90;;;;;;5098523;28;20119;-63
2022/09/01 04:03:40;;;;;;;3.38;1.42;;;17.20;99.90;;;;;;5098346;28;20024;-63
2022/09/01 04:06:09;;;;;;;1.73;1.30;;;17.10;99.90;;;;;;5081524;28;20036;-63
2022/09/01 04:08:34;;;;;;;3.50;1.30;;;17.00;99.90;;;;;;5098164;28;20044;-63
2022/09/01 04:11:03;;;;;;;4.05;1.40;;;17.00;99.90;;;;;;5081361;28;20132;-62
2022/09/01 04:13:38;;;;;;;6.50;1.67;;;17.10;99.90;;;;;;5098148;28;20020;-63
2022/09/01 04:18:03;;;;;;;3.67;1.60;;;17.10;99.90;;;;;;5081333;28;20031;-63
2022/09/01 04:18:59;;;;;;;3.58;1.58;;;17.10;99.90;;;;;;5090464;22;20040;-64
2022/09/01 04:21:25;;;;;;;5.63;1.40;;;17.10;99.90;;;;;;5094801;28;20036;-63
2022/09/01 04:23:51;;;;;;;2.72;1.30;;;17.20;99.90;;;;;;5077671;28;20051;-63
2022/09/01 04:26:22;;;;;;;3.28;1.85;;;17.00;99.90;;;;;;5094556;28;20041;-63
2022/09/01 04:28:49;;;;;;;4.93;1.70;;;16.80;99.90;;;;;;5077578;28;20305;-64
2022/09/01 04:31:20;;;;;;;2.50;1.50;;;16.70;99.90;;;;;;5077545;28;20278;-62
2022/09/01 04:33:51;;;;;;;;;;;16.80;99.90;;;;;;5077854;28;20056;-62
2022/09/01 04:36:24;;;;;;;4.15;1.95;;;16.60;99.90;;;;;;5094368;28;19913;-62
2022/09/01 04:38:54;;;;;;;;;;;16.50;99.90;;;;;;5078906;28;20025;-63
2022/09/01 04:41:30;;;;;;;2.03;1.83;;;16.50;99.90;;;;;;5077368;28;19916;-62
2022/09/01 04:44:03;;;;;;;5.88;1.85;;;16.40;99.90;;;;;;5077350;28;20067;-63
2022/09/01 04:46:34;;;;;;;4.15;2.20;;;16.30;99.90;;;;;;5077331;28;20103;-62
2022/09/01 04:49:08;;;;;;;2.42;1.95;;;16.30;99.90;;;;;;5077017;28;20028;-63
2022/09/01 04:51:38;;;;;;;7.18;2.30;;;16.40;99.90;;;;;;5077402;28;20443;-62
2022/09/01 04:54:10;;;;;;;5.50;2.05;;;16.40;99.90;;;;;;5077092;28;20042;-64
2022/09/01 04:56:37;;;;;;;4.30;2.05;;;16.40;99.90;;;;;;5078037;28;20337;-65
2022/09/01 04:59:09;;;;;;;5.55;2.40;;;16.40;99.90;;;;;;5076073;28;20032;-63
2022/09/01 05:01:44;;;;;;;6.18;2.60;;;16.40;99.90;;;;;;5077477;28;20207;-63
2022/09/01 05:04:31;;;;;;;6.13;2.42;;;16.50;99.90;;;;;;5076786;28;20032;-63
2022/09/01 05:06:59;;;;;;;5.22;2.30;;;16.50;99.90;;;;;;5076432;28;20024;-63
2022/09/01 05:09:30;;;;;;;3.83;2.35;;;16.50;99.90;;;;;;5076422;28;20040;-63
2022/09/01 05:12:09;;;;;;;3.42;2.45;;;16.50;99.90;;;;;;5076448;28;20139;-64
2022/09/01 05:14:41;;;;;;;5.35;2.90;;;16.50;99.90;;;;;;5076698;28;20074;-63
2022/09/01 05:17:10;;;;;;;3.50;2.85;;;16.40;99.90;;;;;;5093455;28;20135;-63
2022/09/01 05:19:42;;;;;;;5.20;2.65;;;16.40;99.90;;;;;;5076235;28;20060;-61
2022/09/01 05:22:09;;;;;;;5.50;2.72;;;16.40;99.90;;;;;;5076761;28;20039;-62
2022/09/01 05:24:39;;;;;;;3.03;2.53;;;16.30;99.90;;;;;;5076283;28;20108;-63
2022/09/01 05:27:06;;;;;;;6.30;2.92;;;16.30;99.90;;;;;;5076262;28;20048;-62
2022/09/01 05:29:37;;;;;;;7.28;3.13;;;16.30;99.90;;;;;;5076224;28;20138;-62
2022/09/01 05:32:08;;;;;;;6.60;3.95;;;16.30;99.90;;;;;;5076111;28;20304;-62
2022/09/01 05:34:37;;;;;;;6.13;3.95;;;16.40;99.90;;;;;;5093129;28;20032;-62
2022/09/01 05:37:07;;;;;;;6.13;3.63;;;16.30;99.90;;;;;;5076178;28;20037;-62
2022/09/01 05:39:35;;;;;;;5.85;3.45;;;16.30;99.90;;;;;;5076284;28;20032;-61
2022/09/01 05:42:06;;;;;;;5.80;3.42;;;16.40;99.90;;;;;;5076143;28;20024;-63
2022/09/01 05:44:33;;;;;;;7.22;3.30;;;16.50;99.90;;;;;;5076249;28;20309;-63
2022/09/01 05:46:58;;;;;;;6.03;2.85;;;16.60;99.90;;;;;;5059505;28;20028;-63
2022/09/01 05:49:27;;;;;;;7.05;3.50;;;16.50;99.90;;;;;;5076032;28;20422;-63
2022/09/01 05:51:57;;;;;;;8.52;3.25;;;16.50;99.90;;;;;;5076089;28;20037;-63
2022/09/01 05:54:26;;;;;;;6.28;3.67;;;16.60;99.90;;;;;;5076304;28;20438;-63
2022/09/01 05:56:57;;;;;;;5.72;3.22;;;16.50;99.90;;;;;;5076256;28;20059;-63
2022/09/01 05:59:26;;;;;;;7.32;3.78;;;16.60;99.90;;;;;;5075960;28;20032;-63
2022/09/01 06:01:59;;;;;;;10.10;3.55;;;16.50;99.90;;;;;;5075742;28;20127;-62
2022/09/01 06:04:26;;;;;;;6.85;4.32;;;16.50;99.90;;;;;;5076809;28;20098;-61
2022/09/01 06:06:55;;;;;;;6.97;4.22;;;16.60;99.90;;;;;;5076037;28;20035;-61
2022/09/01 06:09:22;;;;;;;7.32;4.38;;;16.80;99.90;;;;;;5076886;28;20083;-61
2022/09/01 06:11:50;;;;;;;8.35;4.53;;;16.90;99.90;;;;;;5075445;28;20033;-63
2022/09/01 06:14:17;;;;;;;9.27;4.78;;;16.70;99.90;;;;;;5075686;28;20097;-62
2022/09/01 06:16:46;;;;;;;8.57;4.97;;;16.70;99.90;;;;;;5075685;28;20131;-62
2022/09/01 06:19:14;;;;;;;10.68;4.88;;;16.70;99.90;;;;;;5092381;28;20037;-64
2022/09/01 06:21:44;;;;;;;8.30;5.00;;;16.70;99.90;;;;;;5075917;28;20032;-63
2022/09/01 06:24:10;;;;;;;8.25;4.82;;;16.70;99.90;;;;;;5075669;28;20116;-63
2022/09/01 06:26:38;;;;;;;11.45;4.07;;;16.80;99.90;;;;;;5075716;28;20121;-60
2022/09/01 06:29:08;;;;;;;7.35;4.80;;;17.20;99.90;;;;;;5075705;28;20036;-62
2022/09/01 06:31:39;;;;;;;6.88;4.97;;;17.30;99.90;;;;;;5075708;28;20025;-62
2022/09/01 06:34:16;;;;;;;8.07;5.15;;;17.20;99.90;;;;;;5075595;28;20043;-63
2022/09/01 06:36:44;;;;;;;8.85;5.07;;;17.30;99.90;;;;;;5075718;28;20033;-62
2022/09/01 06:39:18;;;;;;;10.48;5.78;;;17.30;99.90;;;;;;5075535;28;20308;-63
2022/09/01 06:41:46;;;;;;;10.57;5.30;;;17.20;99.90;;;;;;5075722;28;20406;-63
2022/09/01 06:44:13;;;;;;;11.25;5.60;;;17.20;99.90;;;;;;5092485;28;20025;-64
2022/09/01 06:46:43;;;;;;;10.48;5.70;;;17.30;99.90;;;;;;5075812;28;20119;-62
2022/09/01 06:49:10;;;;;;;10.68;5.68;;;17.50;99.90;;;;;;5058900;28;20127;-59
2022/09/01 06:51:36;;;;;;;10.43;5.10;;;17.60;99.90;;;;;;5059095;28;20040;-62
2022/09/01 06:54:03;;;;;;;11.50;6.03;;;17.60;99.90;;;;;;5075752;28;20029;-63
2022/09/01 06:56:33;;;;;;;9.50;6.05;;;17.70;99.90;;;;;;5075519;28;20119;-62
2022/09/01 06:59:03;;;;;;;9.68;6.47;;;17.70;99.90;;;;;;5092188;28;20351;-62
2022/09/01 07:01:30;;;;;;;12.98;6.70;;;17.90;99.90;;;;;;5075366;28;20089;-62
2022/09/01 07:03:56;;;;;;;10.18;6.22;;;17.90;99.90;;;;;;5075427;28;20066;-62
2022/09/01 07:06:40;;;;;;;14.00;7.15;;;18.00;99.90;;;;;;5075195;28;20047;-61
2022/09/01 07:09:29;;;;;;;12.20;6.82;;;18.10;99.90;;;;;;5075687;28;20033;-62
2022/09/01 07:12:20;;;;;;;13.65;7.07;;;18.10;99.90;;;;;;5076083;28;20040;-62
2022/09/01 07:14:48;;;;;;;17.08;7.32;;;18.10;99.90;;;;;;5076086;28;20108;-64
2022/09/01 07:17:14;;;;;;;15.77;8.05;;;18.20;99.90;;;;;;5075223;28;20035;-63
2022/09/01 07:19:41;;;;;;;10.95;7.07;;;18.30;99.90;;;;;;5074954;28;20164;-64
2022/09/01 07:22:08;;;;;;;11.80;7.20;;;18.30;99.90;;;;;;5075229;28;20036;-62
2022/09/01 07:24:36;;;;;;;11.50;7.63;;;18.40;99.90;;;;;;5078701;28;20035;-62
2022/09/01 07:27:26;;;;;;;12.63;6.97;;;18.60;99.90;;;;;;5079955;28;20135;-62
2022/09/01 07:29:55;;;;;;;14.93;7.65;;;18.80;99.90;;;;;;5078700;28;20036;-61
2022/09/01 07:32:22;;;;;;;14.82;7.18;;;18.90;99.90;;;;;;5078619;28;20376;-63
2022/09/01 07:34:48;;;;;;;13.00;7.03;;;19.00;99.90;;;;;;5062037;28;20032;-62
2022/09/01 07:37:14;;;;;;;12.10;6.78;;;19.10;99.90;;;;;;5078514;28;20070;-63
2022/09/01 07:39:46;;;;;;;9.98;7.53;;;19.00;99.90;;;;;;5078354;28;20442;-62
2022/09/01 07:42:47;;;;;;;13.15;7.70;;;19.00;99.90;;;;;;5066395;28;20032;-63
2022/09/01 07:45:32;;;;;;;13.73;7.18;;;19.10;99.90;;;;;;5079452;28;20296;-62
2022/09/01 07:48:05;;;;;;;13.35;6.90;;;19.20;99.90;;;;;;5078249;28;20358;-63
2022/09/01 07:50:36;;;;;;;15.25;7.18;;;19.20;99.90;;;;;;5078296;28;20392;-62
2022/09/01 07:53:03;;;;;;;14.75;7.15;;;19.20;99.90;;;;;;5078190;28;20400;-63
2022/09/01 07:55:30;;;;;;;13.07;7.22;;;19.30;99.90;;;;;;5079281;28;20075;-62
2022/09/01 07:57:58;;;;;;;10.98;6.93;;;19.60;99.90;;;;;;5094960;28;20355;-62
2022/09/01 08:00:27;;;;;;;13.00;7.50;;;19.70;99.90;;;;;;5078051;28;20028;-63
2022/09/01 08:02:58;;;;;;;12.23;7.15;;;19.70;99.90;;;;;;5078445;28;20032;-62
2022/09/01 08:05:25;;;;;;;15.57;7.45;;;19.70;99.90;;;;;;5077967;28;20020;-63
2022/09/01 08:07:52;;;;;;;12.65;7.55;;;19.70;99.90;;;;;;5078813;28;20025;-63
2022/09/01 08:10:22;;;;;;;11.63;6.90;;;20.00;99.90;;;;;;5077915;28;20416;-63
2022/09/01 08:12:48;;;;;;;12.88;7.22;;;20.00;99.90;;;;;;5094711;28;20028;-61
2022/09/01 08:15:16;;;;;;;15.43;7.38;;;20.10;99.90;;;;;;5078519;28;20032;-62
2022/09/01 08:17:43;;;;;;;10.82;7.00;;;20.10;99.90;;;;;;5077775;28;20029;-63
2022/09/01 08:20:12;;;;;;;10.90;7.38;;;20.10;99.90;;;;;;5077365;28;20117;-62
2022/09/01 08:22:50;;;;;;;11.68;7.22;;;20.20;99.90;;;;;;5077867;28;20028;-64
2022/09/01 08:25:25;;;;;;;18.67;7.32;;;20.30;99.90;;;;;;5062236;28;20063;-60
2022/09/01 08:27:53;;;;;;;11.90;7.30;;;20.50;99.90;;;;;;5094322;28;20051;-62
2022/09/01 08:30:19;;;;;;;12.63;7.65;;;20.60;99.90;;;;;;5077291;28;20039;-62
2022/09/01 08:32:45;;;;;;;13.38;7.40;;;20.60;99.90;;;;;;5078318;28;20324;-62
2022/09/01 08:35:12;;;;;;;14.43;6.90;;;20.60;99.90;;;;;;5077460;28;20029;-62
2022/09/01 08:37:39;;;;;;;12.30;6.78;;;20.60;99.90;;;;;;5077197;28;20029;-63
2022/09/01 08:40:07;;;;;;;13.82;7.32;;;20.60;99.90;;;;;;5077447;28;20020;-64
2022/09/01 08:42:51;;;;;;;15.18;7.68;;;20.80;99.90;;;;;;5077269;28;20351;-64
2022/09/01 08:45:34;;;;;;;14.23;7.20;;;20.80;99.90;;;;;;5077275;28;20024;-65
2022/09/01 08:48:14;;;;;;;11.30;6.75;;;21.00;99.90;;;;;;5076973;28;20354;-64
2022/09/01 08:50:43;;;;;;;13.77;7.00;;;21.10;99.90;;;;;;5077830;28;20020;-64
2022/09/01 08:53:27;;;;;;;9.43;6.38;;;21.10;99.90;;;;;;5077103;28;20024;-65
2022/09/01 08:55:56;;;;;;;;;;;21.10;99.90;;;;;;5077375;28;20029;-65
2022/09/01 08:58:23;;;;;;;13.75;6.97;;;21.20;99.90;;;;;;5077624;28;19910;-66
2022/09/01 09:01:20;;;;;;;15.23;7.38;;;21.40;99.90;;;;;;5077385;28;20106;-64
2022/09/01 09:04:08;;;;;;;11.85;6.90;;;21.30;99.90;;;;;;5077930;28;20062;-65
2022/09/01 09:06:59;;;;;;;13.23;6.68;;;21.50;99.90;;;;;;5093879;28;20086;-64
2022/09/01 09:09:37;;;;;;;12.65;6.28;;;21.70;99.90;;;;;;5077536;28;20059;-64
2022/09/01 09:12:31;;;;;;;11.98;6.85;;;22.00;99.90;;;;;;5093637;28;20289;-65
2022/09/01 09:15:10;;;;;;;10.00;5.50;;;22.20;99.90;;;;;;5077388;28;20066;-64
2022/09/01 09:17:44;;;;;;;9.23;6.00;;;22.30;99.90;;;;;;5076639;28;20043;-64
2022/09/01 09:20:10;;;;;;;10.52;5.60;;;22.30;99.90;;;;;;5076422;28;20316;-64
2022/09/01 09:22:35;;;;;;;7.65;5.40;;;22.50;99.90;;;;;;5093673;28;20040;-63
2022/09/01 09:25:14;;;;;;;8.55;5.15;;;22.60;99.90;;;;;;5076589;28;20024;-64
2022/09/01 09:27:43;;;;;;;12.40;5.47;;;22.60;99.90;;;;;;5077243;28;20071;-64
2022/09/01 09:30:20;;;;;;;9.35;5.43;;;22.80;99.90;;;;;;5077197;28;20040;-63
2022/09/01 09:33:03;;;;;;;11.50;5.05;;;22.90;99.90;;;;;;5077560;28;20103;-63
2022/09/01 09:35:32;;;;;;;;;;;23.10;99.90;;;;;;5077186;28;20038;-63
2022/09/01 09:38:19;;;;;;;8.57;3.50;;;23.10;99.90;;;;;;5077136;28;19918;-64
2022/09/01 09:41:01;;;;;;;5.10;2.97;;;23.20;99.90;;;;;;5077047;28;20032;-63
2022/09/01 09:43:30;;;;;;;3.42;2.50;;;23.40;99.90;;;;;;5077017;28;20043;-62
2022/09/01 09:46:23;;;;;;;4.60;2.20;;;23.20;99.90;;;;;;5076818;28;20332;-61
2022/09/01 09:49:24;;;;;;;4.95;2.00;;;23.30;99.90;;;;;;5077186;28;20341;-62
2022/09/01 09:51:56;;;;;;;3.50;1.75;;;23.30;99.90;;;;;;5069964;28;20060;-66
2022/09/01 09:54:27;;;;;;;4.55;1.60;;;23.50;99.90;;;;;;5076786;28;20025;-63
2022/09/01 09:57:02;;;;;;;3.60;1.60;;;23.70;99.90;;;;;;5076803;28;20040;-63
2022/09/01 09:59:36;;;;;;;3.00;1.42;;;23.80;99.90;;;;;;5076900;28;20396;-63
2022/09/01 10:02:25;;;;;;;1.88;1.20;;;23.90;99.90;;;;;;5077353;28;20055;-64
2022/09/01 10:04:53;;;;;;;3.35;1.00;;;24.00;99.90;;;;;;5076820;28;20052;-63
2022/09/01 10:07:24;;;;;;;2.42;1.13;;;24.10;99.90;;;;;;5076782;28;20024;-63
2022/09/01 10:09:52;;;;;;;4.57;1.30;;;24.10;99.90;;;;;;5092962;28;20375;-64
2022/09/01 10:12:18;;;;;;;4.45;1.40;;;24.00;99.90;;;;;;5076673;28;20032;-63
2022/09/01 10:14:51;;;;;;;3.90;1.30;;;24.10;99.90;;;;;;5076624;28;20059;-64
2022/09/01 10:17:33;;;;;;;2.95;1.60;;;24.20;99.90;;;;;;5076577;28;20045;-65
2022/09/01 10:20:05;;;;;;;3.80;1.48;;;24.30;99.90;;;;;;5076524;28;20059;-64
2022/09/01 10:22:32;;;;;;;6.20;1.48;;;24.40;99.90;;;;;;5076564;28;20039;-64
2022/09/01 10:24:59;;;;;;;4.70;1.45;;;24.60;99.90;;;;;;5092898;28;20020;-63
2022/09/01 10:27:30;;;;;;;2.45;0.90;;;24.80;99.90;;;;;;5076938;28;20315;-64
2022/09/01 10:30:07;;;;;;;4.53;1.40;;;24.90;99.90;;;;;;5076552;28;20063;-64
2022/09/01 10:32:40;;;;;;;3.47;1.50;;;24.80;99.90;;;;;;5076542;28;20039;-64
2022/09/01 10:35:11;;;;;;;1.63;1.08;;;24.90;99.90;;;;;;5076596;28;20054;-63
2022/09/01 10:37:38;;;;;;;3.00;1.02;;;25.10;99.90;;;;;;5076560;28;20109;-63
2022/09/01 10:40:10;;;;;;;4.22;1.23;;;25.20;99.90;;;;;;5075661;28;20049;-65
2022/09/01 10:42:36;;;;;;;4.57;1.00;;;25.30;99.90;;;;;;5076414;28;20020;-65
2022/09/01 10:45:02;;;;;;;2.00;0.93;;;26.00;99.90;;;;;;5076383;28;20021;-64
2022/09/01 10:47:32;;;;;;;1.58;0.98;;;27.00;99.90;;;;;;5076877;28;20288;-64
2022/09/01 10:50:21;;;;;;;2.75;0.82;;;27.60;99.90;;;;;;5076303;28;20032;-64
2022/09/01 10:52:46;;;;;;;4.05;1.15;;;27.90;99.90;;;;;;5076524;28;20119;-65
2022/09/01 10:55:22;;;;;;;1.92;0.80;;;28.30;98.90;;;;;;5092755;28;20404;-65
2022/09/01 10:58:06;;;;;;;2.17;0.90;;;29.40;97.20;;;;;;5078244;28;20396;-64
2022/09/01 11:00:34;;;;;;;4.45;0.90;;;29.20;94.50;;;;;;5080034;28;20025;-64
2022/09/01 11:03:14;;;;;;;0.80;0.70;;;28.90;94.80;;;;;;5078984;28;20090;-64
2022/09/01 11:05:58;;;;;;;1.73;0.90;;;29.70;93.10;;;;;;5079804;28;20399;-65
2022/09/01 11:08:27;;;;;;;2.90;0.93;;;29.80;91.70;;;;;;5079560;28;20036;-64
2022/09/01 11:11:00;;;;;;;3.42;0.88;;;30.10;90.80;;;;;;5079663;28;20054;-64
2022/09/01 11:13:48;;;;;;;1.88;0.90;;;30.40;89.90;;;;;;5079841;28;20040;-65
2022/09/01 11:16:31;;;;;;;2.55;1.02;;;30.00;90.20;;;;;;5080214;28;20032;-65
2022/09/01 11:19:36;;;;;;;2.08;1.00;;;29.80;90.00;;;;;;5079498;28;20044;-64
2022/09/01 11:22:25;;;;;;;1.40;1.13;;;30.60;88.50;;;;;;5079950;28;20075;-65
2022/09/01 11:25:04;;;;;;;5.97;1.00;;;30.10;87.10;;;;;;5079466;28;20406;-65
2022/09/01 11:27:49;;;;;;;2.60;0.90;;;29.60;87.50;;;;;;5079393;28;20035;-65
2022/09/01 11:30:37;;;;;;;2.53;1.10;;;30.10;86.50;;;;;;5079388;28;20037;-65
2022/09/01 11:33:11;;;;;;;3.35;1.00;;;29.70;86.20;;;;;;5079309;28;20043;-62
2022/09/01 11:35:38;;;;;;;2.72;1.13;;;29.90;86.00;;;;;;5079317;28;20040;-63
2022/09/01 11:38:06;;;;;;;2.15;1.00;;;30.20;84.20;;;;;;5079223;28;20036;-64
2022/09/01 11:40:34;;;;;;;1.70;1.15;;;29.50;85.10;;;;;;5079075;28;20138;-64
2022/09/01 11:43:06;;;;;;;2.03;1.17;;;29.40;85.30;;;;;;5079164;28;20043;-65
2022/09/01 11:45:35;;;;;;;3.85;1.30;;;29.80;84.40;;;;;;5079176;28;20105;-64
2022/09/01 11:48:08;;;;;;;3.00;1.20;;;30.80;83.30;;;;;;5078285;28;20047;-64
2022/09/01 11:50:39;;;;;;;2.72;1.10;;;32.10;79.10;;;;;;5079674;28;20079;-64
2022/09/01 11:53:05;;;;;;;3.38;1.00;;;32.70;75.90;;;;;;5079356;28;20028;-64
2022/09/01 11:55:39;;;;;;;3.83;1.10;;;31.30;76.70;;;;;;5079008;28;20047;-65
2022/09/01 11:58:13;;;;;;;5.93;1.10;;;31.30;77.80;;;;;;5078935;28;20044;-64
2022/09/01 12:00:43;;;;;;;3.90;1.20;;;32.00;77.30;;;;;;5079435;28;20028;-64
2022/09/01 12:03:28;;;;;;;5.45;1.50;;;33.00;72.40;;;;;;5079352;28;20385;-66
2022/09/01 12:06:05;;;;;;;2.00;1.15;;;33.60;69.90;;;;;;5078607;28;20032;-66
2022/09/01 12:08:35;;;;;;;4.45;1.20;;;33.40;67.00;;;;;;5078376;28;20052;-66
2022/09/01 12:11:11;;;;;;;3.25;1.20;;;33.10;67.60;;;;;;5078615;28;20047;-65
2022/09/01 12:13:39;;;;;;;2.60;1.20;;;33.10;67.00;;;;;;5078604;28;20304;-65
2022/09/01 12:16:07;;;;;;;2.88;1.10;;;33.00;66.30;;;;;;5078602;28;20024;-66
2022/09/01 12:18:47;;;;;;;3.33;1.35;;;33.50;64.70;;;;;;5078748;28;20285;-66
2022/09/01 12:21:19;;;;;;;1.40;1.10;;;32.00;66.00;;;;;;5078296;28;20074;-66
2022/09/01 12:23:45;;;;;;;2.10;1.23;;;32.30;67.50;;;;;;5078367;28;20020;-66
2022/09/01 12:26:17;;;;;;;3.05;1.42;;;32.30;66.00;;;;;;5078089;28;20035;-65
2022/09/01 12:28:43;;;;;;;2.03;1.17;;;33.90;64.40;;;;;;5078630;28;20025;-65
2022/09/01 12:31:19;;;;;;;1.67;1.17;;;34.70;60.40;;;;;;5078201;28;20090;-66
2022/09/01 12:33:46;;;;;;;3.50;1.20;;;35.40;58.40;;;;;;5078164;28;20021;-66
2022/09/01 12:36:33;;;;;;;3.58;1.13;;;36.80;56.90;;;;;;5078194;28;20035;-66
2022/09/01 12:39:23;;;;;;;3.38;1.17;;;37.60;54.90;;;;;;5077871;28;20089;-66
2022/09/01 12:42:07;;;;;;;3.28;1.30;;;38.10;52.50;;;;;;5078010;28;20048;-66
2022/09/01 12:44:45;;;;;;;2.65;1.15;;;37.20;52.30;;;;;;5078005;28;20108;-66
2022/09/01 12:47:37;;;;;;;2.67;1.33;;;36.70;52.30;;;;;;5077851;28;20470;-63
2022/09/01 12:50:12;;;;;;;2.67;1.30;;;34.20;54.80;;;;;;5078024;28;20024;-63
2022/09/01 12:52:46;;;;;;;1.30;1.10;;;32.40;57.50;;;;;;5077826;28;20293;-63
2022/09/01 12:55:22;;;;;;;3.33;1.15;;;31.60;59.50;;;;;;5077679;28;20115;-64
2022/09/01 12:57:51;;;;;;;2.95;1.20;;;32.60;58.60;;;;;;5077686;28;20334;-64
2022/09/01 13:00:20;;;;;;;3.20;1.20;;;34.30;55.70;;;;;;5077644;28;20068;-65
2022/09/01 13:02:51;;;;;;;1.77;1.52;;;35.10;54.70;;;;;;5077492;28;20036;-64
2022/09/01 13:05:25;;;;;;;1.58;1.23;;;34.80;55.20;;;;;;5077501;28;20119;-63
2022/09/01 13:07:53;;;;;;;3.03;1.17;;;34.60;55.60;;;;;;5077932;28;20404;-65
2022/09/01 13:10:20;;;;;;;1.95;1.30;;;34.20;56.40;;;;;;5077492;28;20020;-65